Time;durP1;ratioP1;P1;durP2;ratioP2;P2;SDS_P1;SDS_P2;PMS_P1;PMS_P2;Temp;Humidity;BMP_temperature;BMP_pressure;BME280_temperature;BME280_humidity;BME280_pressure;Samples;Min_cycle;Max_cycle;Signal;HPM_P1;HPM_P2
2022/02/13 00:01:46;;;;;;;;;;;;;;;29.69;53.66;100694.63;5071831;28;71314;-38
2022/02/13 00:04:16;;;;;;;;;;;;;;;29.75;54.28;100699.97;5071734;28;66745;-35
2022/02/13 00:06:45;;;;;;;;;;;;;;;29.79;55.04;100706.63;5065073;28;70245;-36
2022/02/13 00:09:15;;;;;;;;;;;;;;;29.84;54.76;100705.97;5068475;28;66716;-37
2022/02/13 00:11:45;;;;;;;;;;;;;;;29.89;55.45;100705.31;5083444;27;70082;-39
2022/02/13 00:14:16;;;;;;;;;;;;;;;29.90;55.38;100707.00;5068235;28;65821;-38
2022/02/13 00:16:46;;;;;;;;;;;;;;;29.87;56.73;100719.06;5065035;27;69765;-39
2022/02/13 00:19:15;;;;;;;;;;;;;;;29.83;56.35;100717.81;5074320;28;66771;-45
2022/02/13 00:21:51;;;;;;;;;;;;;;;29.84;55.85;100723.03;5068818;28;69217;-40
2022/02/13 00:24:21;;;;;;;;;;;;;;;29.83;58.10;100726.75;5079422;27;66116;-40
2022/02/13 00:26:52;;;;;;;;;;;;;;;29.82;56.84;100722.41;5077192;28;70452;-40
2022/02/13 00:29:26;;;;;;;;;;;;;;;29.81;56.77;100726.16;5076225;28;67042;-39
2022/02/13 00:31:55;;;;;;;;;;;;;;;29.83;58.11;100728.63;5073821;28;70236;-38
2022/02/13 00:34:26;;;;;;;;;;;;;;;29.83;57.30;100734.88;5075372;27;65923;-41
2022/02/13 00:36:58;;;;;;;;;;;;;;;29.89;57.50;100745.88;5067532;28;70634;-40
2022/02/13 00:39:28;;;;;;;;;;;;;;;29.93;57.85;100749.81;5076355;28;66287;-39
2022/02/13 00:41:58;;;;;;;;;;;;;;;29.97;58.27;100746.44;5077901;28;69245;-40
2022/02/13 00:44:28;;;;;;;;;;;;;;;30.01;57.86;100753.09;5076358;28;66255;-40
2022/02/13 00:46:58;;;;;;;;;;;;;;;30.05;56.86;100753.47;5076188;28;69777;-40
2022/02/13 00:49:28;;;;;;;;;;;;;;;30.09;57.20;100760.13;5076388;28;66649;-39
2022/02/13 00:51:58;;;;;;;;;;;;;;;30.12;56.78;100759.69;5082662;27;70262;-37
2022/02/13 00:54:31;;;;;;;;;;;;;;;30.13;58.03;100764.03;5064638;28;65094;-37
2022/02/13 00:57:02;;;;;;;;;;;;;;;30.17;56.61;100767.97;5070938;28;69822;-37
2022/02/13 00:59:32;;;;;;;;;;;;;;;30.18;57.50;100769.63;5077061;28;66317;-37
2022/02/13 01:02:02;;;;;;;;;;;;;;;30.20;57.77;100778.38;5083188;27;70371;-37
2022/02/13 01:04:32;;;;;;;;;;;;;;;30.22;57.41;100781.69;5071032;28;66137;-37
2022/02/13 01:07:02;;;;;;;;;;;;;;;30.26;58.15;100782.09;5086142;27;69542;-36
2022/02/13 01:09:32;;;;;;;;;;;;;;;30.28;57.07;100780.84;5069904;28;66388;-38
2022/02/13 01:12:02;;;;;;;;;;;;;;;30.31;57.56;100794.97;5077599;28;69900;-38
2022/02/13 01:14:31;;;;;;;;;;;;;;;30.33;57.16;100793.69;5068125;28;65658;-36
2022/02/13 01:17:01;;;;;;;;;;;;;;;30.35;57.88;100799.72;5073793;28;70272;-36
2022/02/13 01:19:32;;;;;;;;;;;;;;;30.38;57.40;100801.16;5076727;28;65728;-37
2022/02/13 01:22:04;;;;;;;;;;;;;;;30.39;57.30;100810.94;5073295;28;70773;-36
2022/02/13 01:24:35;;;;;;;;;;;;;;;30.42;56.87;100815.91;5077928;28;66630;-39
2022/02/13 01:27:04;;;;;;;;;;;;;;;30.41;57.28;100816.97;5078835;28;70650;-37
2022/02/13 01:29:34;;;;;;;;;;;;;;;30.39;56.89;100825.28;5072758;28;66963;-38
2022/02/13 01:32:05;;;;;;;;;;;;;;;30.39;56.22;100829.88;5095600;27;70580;-39
2022/02/13 01:34:34;;;;;;;;;;;;;;;30.36;57.17;100835.72;5076798;28;66766;-38
2022/02/13 01:37:04;;;;;;;;;;;;;;;30.32;56.68;100834.53;5075120;28;70287;-38
2022/02/13 01:39:34;;;;;;;;;;;;;;;30.33;57.08;100841.56;5067325;28;65648;-39
2022/02/13 01:42:05;;;;;;;;;;;;;;;30.34;56.50;100843.22;5073582;28;70042;-36
2022/02/13 01:44:35;;;;;;;;;;;;;;;30.33;56.65;100844.28;5074937;28;66422;-37
2022/02/13 01:47:05;;;;;;;;;;;;;;;30.35;57.15;100844.91;5070754;28;70292;-38
2022/02/13 01:49:36;;;;;;;;;;;;;;;30.36;56.62;100846.56;5063355;28;66039;-37
2022/02/13 01:52:06;;;;;;;;;;;;;;;30.37;57.47;100853.63;5078035;28;70352;-37
2022/02/13 01:54:36;;;;;;;;;;;;;;;30.37;56.68;100850.91;5070551;28;65503;-38
2022/02/13 01:57:09;;;;;;;;;;;;;;;30.37;57.70;100848.19;5069271;27;69859;-35
2022/02/13 01:59:40;;;;;;;;;;;;;;;30.40;57.92;100847.78;5076730;28;66528;-38
2022/02/13 02:02:10;;;;;;;;;;;;;;;30.41;57.87;100839.44;5079288;28;70225;-39
2022/02/13 02:04:43;;;;;;;;;;;;;;;30.44;56.97;100844.41;5076298;28;66108;-39
2022/02/13 02:07:13;;;;;;;;;;;;;;;30.48;56.39;100851.06;5078172;28;70337;-38
2022/02/13 02:09:50;;;;;;;;;;;;;;;30.50;57.01;100856.25;5073494;28;67200;-37
2022/02/13 02:12:20;;;;;;;;;;;;;;;30.50;57.41;100858.94;5076407;27;70694;-37
2022/02/13 02:14:50;;;;;;;;;;;;;;;30.50;57.19;100853.53;5085978;27;66101;-40
2022/02/13 02:17:20;;;;;;;;;;;;;;;30.48;56.95;100856.47;5065138;28;70396;-40
2022/02/13 02:19:49;;;;;;;;;;;;;;;30.54;56.66;100862.91;5086312;27;66703;-39
2022/02/13 02:22:21;;;;;;;;;;;;;;;30.59;56.70;100863.06;5067982;27;70824;-37
2022/02/13 02:24:51;;;;;;;;;;;;;;;30.64;56.39;100857.81;5077434;28;66048;-38
2022/02/13 02:27:21;;;;;;;;;;;;;;;30.70;56.59;100859.66;5073441;27;69292;-38
2022/02/13 02:29:51;;;;;;;;;;;;;;;30.76;56.68;100857.09;5070870;27;66656;-38
2022/02/13 02:32:21;;;;;;;;;;;;;;;30.82;56.25;100867.09;5072579;28;69935;-38
2022/02/13 02:34:53;;;;;;;;;;;;;;;30.88;56.61;100863.50;5077405;27;43067;-38
2022/02/13 02:37:24;;;;;;;;;;;;;;;30.93;56.92;100869.09;5077283;28;70341;-39
2022/02/13 02:39:54;;;;;;;;;;;;;;;30.98;56.35;100861.16;5074333;28;65572;-38
2022/02/13 02:42:24;;;;;;;;;;;;;;;31.03;56.53;100852.34;5077223;28;70547;-39
2022/02/13 02:44:54;;;;;;;;;;;;;;;31.06;56.37;100854.59;5078244;27;65679;-38
2022/02/13 02:47:24;;;;;;;;;;;;;;;31.11;56.50;100855.59;5074608;28;69470;-38
2022/02/13 02:49:54;;;;;;;;;;;;;;;31.14;56.46;100855.13;5077516;28;66376;-38
2022/02/13 02:52:24;;;;;;;;;;;;;;;31.20;56.25;100858.84;5077064;28;68316;-38
2022/02/13 02:54:54;;;;;;;;;;;;;;;31.24;55.58;100857.34;5078274;27;65599;-39
2022/02/13 02:57:24;;;;;;;;;;;;;;;31.27;56.13;100856.06;5079080;28;69747;-37
2022/02/13 02:59:56;;;;;;;;;;;;;;;31.31;55.94;100838.31;5072659;27;65370;-38
2022/02/13 03:02:26;;;;;;;;;;;;;;;31.35;55.86;100844.94;5068068;28;69844;-38
2022/02/13 03:04:57;;;;;;;;;;;;;;;31.37;55.36;100837.44;5074279;28;65330;-39
2022/02/13 03:07:27;;;;;;;;;;;;;;;31.39;55.63;100835.34;5073663;28;70620;-37
2022/02/13 03:09:58;;;;;;;;;;;;;;;31.43;55.14;100839.25;5071756;28;65159;-38
2022/02/13 03:12:29;;;;;;;;;;;;;;;31.44;54.91;100840.91;5073774;28;70692;-38
2022/02/13 03:15:00;;;;;;;;;;;;;;;31.47;55.38;100837.75;5075427;27;67337;-39
2022/02/13 03:17:30;;;;;;;;;;;;;;;31.51;55.45;100838.97;5078174;28;70739;-38
2022/02/13 03:20:03;;;;;;;;;;;;;;;31.54;54.59;100835.81;5094740;27;66508;-39
2022/02/13 03:22:34;;;;;;;;;;;;;;;31.56;54.85;100836.38;5074357;28;70460;-39
2022/02/13 03:25:04;;;;;;;;;;;;;;;31.60;54.94;100829.47;5072817;28;66461;-38
2022/02/13 03:27:34;;;;;;;;;;;;;;;31.63;54.61;100830.06;5095491;27;69705;-37
2022/02/13 03:30:05;;;;;;;;;;;;;;;31.65;54.17;100831.50;5071930;27;65879;-38
2022/02/13 03:32:35;;;;;;;;;;;;;;;31.69;53.59;100829.16;5079861;28;69439;-38
2022/02/13 03:35:06;;;;;;;;;;;;;;;31.68;54.01;100832.91;5079327;28;65608;-38
2022/02/13 03:37:38;;;;;;;;;;;;;;;31.71;53.31;100833.31;5074673;28;69766;-38
2022/02/13 03:40:09;;;;;;;;;;;;;;;31.76;53.36;100832.59;5078829;28;66373;-38
2022/02/13 03:42:38;;;;;;;;;;;;;;;31.80;52.73;100826.50;5074432;28;71081;-38
2022/02/13 03:45:10;;;;;;;;;;;;;;;31.75;52.69;100811.97;5070927;28;65415;-37
2022/02/13 03:47:40;;;;;;;;;;;;;;;31.92;52.97;100818.44;5076143;27;69868;-37
2022/02/13 03:50:10;;;;;;;;;;;;;;;31.95;54.02;100817.16;5069835;27;65326;-37
2022/02/13 03:52:41;;;;;;;;;;;;;;;31.99;54.67;100816.50;5071486;28;70557;-39
2022/02/13 03:55:13;;;;;;;;;;;;;;;32.02;53.98;100805.19;5077286;28;67498;-37
2022/02/13 03:57:44;;;;;;;;;;;;;;;32.04;54.37;100805.78;5072368;27;70682;-37
2022/02/13 04:00:14;;;;;;;;;;;;;;;32.11;54.10;100804.84;5071347;28;66201;-38
2022/02/13 04:02:44;;;;;;;;;;;;;;;32.20;53.99;100803.47;5067619;28;70098;-39
2022/02/13 04:05:15;;;;;;;;;;;;;;;32.18;53.21;100786.56;5068659;28;65488;-39
2022/02/13 04:07:45;;;;;;;;;;;;;;;32.14;53.13;100782.69;5069209;28;70241;-37
2022/02/13 04:10:16;;;;;;;;;;;;;;;32.11;53.27;100775.00;5078142;28;66401;-37
2022/02/13 04:12:46;;;;;;;;;;;;;;;32.10;53.52;100773.38;5080069;28;69968;-38
2022/02/13 04:15:17;;;;;;;;;;;;;;;32.10;53.64;100767.94;5075294;27;67543;-38
2022/02/13 04:17:47;;;;;;;;;;;;;;;32.14;53.33;100766.41;5075519;28;69343;-37
2022/02/13 04:20:21;;;;;;;;;;;;;;;32.14;53.78;100760.97;5077597;28;65419;-37
2022/02/13 04:22:51;;;;;;;;;;;;;;;32.13;53.73;100752.00;5077004;28;70554;-37
2022/02/13 04:25:21;;;;;;;;;;;;;;;32.14;53.48;100752.81;5080778;27;66803;-37
2022/02/13 04:27:52;;;;;;;;;;;;;;;32.18;53.77;100740.44;5082642;28;70217;-35
2022/02/13 04:30:22;;;;;;;;;;;;;;;32.21;53.81;100734.56;5078404;28;66949;-38
2022/02/13 04:32:55;;;;;;;;;;;;;;;32.26;53.84;100742.81;5070509;28;69060;-36
2022/02/13 04:35:27;;;;;;;;;;;;;;;32.26;53.87;100729.25;5075287;28;66130;-36
2022/02/13 04:37:57;;;;;;;;;;;;;;;32.29;53.64;100720.66;5077025;28;69034;-35
2022/02/13 04:40:26;;;;;;;;;;;;;;;32.31;53.35;100717.69;5076900;27;65473;-36
2022/02/13 04:42:56;;;;;;;;;;;;;;;32.34;53.19;100718.03;5079155;28;70047;-37
2022/02/13 04:45:26;;;;;;;;;;;;;;;32.38;52.80;100721.13;5079104;27;66540;-36
2022/02/13 04:47:57;;;;;;;;;;;;;;;32.39;53.03;100710.03;5064773;28;69609;-36
2022/02/13 04:50:28;;;;;;;;;;;;;;;32.40;52.68;100706.28;5076515;27;66222;-38
2022/02/13 04:52:58;;;;;;;;;;;;;;;32.39;53.11;100699.16;5072000;28;69253;-36
2022/02/13 04:55:28;;;;;;;;;;;;;;;32.37;53.29;100695.03;5076867;28;66317;-37
2022/02/13 04:57:58;;;;;;;;;;;;;;;32.31;53.56;100688.66;5072739;28;69845;-37
2022/02/13 05:00:30;;;;;;;;;;;;;;;32.30;53.75;100688.91;5076813;28;65763;-36
2022/02/13 05:03:00;;;;;;;;;;;;;;;32.29;53.59;100677.22;5076745;28;69574;-37
2022/02/13 05:05:31;;;;;;;;;;;;;;;32.27;53.88;100679.34;5081209;28;65457;-37
2022/02/13 05:08:01;;;;;;;;;;;;;;;32.25;53.81;100671.44;5081568;28;68892;-38
2022/02/13 05:10:32;;;;;;;;;;;;;;;32.24;53.79;100666.25;5079901;28;65726;-37
2022/02/13 05:13:02;;;;;;;;;;;;;;;32.24;54.22;100658.09;5080286;27;69048;-36
2022/02/13 05:15:34;;;;;;;;;;;;;;;32.22;54.10;100654.78;5076052;28;66030;-38
2022/02/13 05:18:04;;;;;;;;;;;;;;;32.23;54.21;100656.44;5072696;28;69794;-37
2022/02/13 05:20:35;;;;;;;;;;;;;;;32.24;54.40;100658.09;5071190;28;66013;-36
2022/02/13 05:23:06;;;;;;;;;;;;;;;32.27;54.26;100644.06;5076085;28;70173;-38
2022/02/13 05:25:36;;;;;;;;;;;;;;;32.30;54.74;100638.16;5075916;28;65995;-38
2022/02/13 05:28:06;;;;;;;;;;;;;;;32.32;54.57;100638.75;5068500;28;69583;-38
2022/02/13 05:30:38;;;;;;;;;;;;;;;32.34;54.72;100625.75;5090741;27;65298;-38
2022/02/13 05:33:08;;;;;;;;;;;;;;;32.36;54.52;100618.22;5083614;27;70753;-37
2022/02/13 05:35:39;;;;;;;;;;;;;;;32.37;54.66;100611.72;5076853;27;66473;-37
2022/02/13 05:38:10;;;;;;;;;;;;;;;32.38;54.65;100610.66;5076180;28;69344;-38
2022/02/13 05:40:41;;;;;;;;;;;;;;;32.41;54.85;100612.09;5074970;28;65410;-37
2022/02/13 05:43:11;;;;;;;;;;;;;;;32.42;55.09;100606.41;5078792;28;69857;-35
2022/02/13 05:45:42;;;;;;;;;;;;;;;32.45;54.54;100603.19;5079856;28;65798;-38
2022/02/13 05:48:13;;;;;;;;;;;;;;;32.57;54.41;100592.38;5068978;28;69812;-37
2022/02/13 05:50:44;;;;;;;;;;;;;;;32.58;54.30;100590.50;5072034;28;65185;-35
2022/02/13 05:53:14;;;;;;;;;;;;;;;32.59;54.92;100581.25;5075316;28;69841;-37
2022/02/13 05:55:45;;;;;;;;;;;;;;;32.63;54.69;100580.56;5075373;28;66121;-36
2022/02/13 05:58:15;;;;;;;;;;;;;;;32.58;54.99;100571.47;5057738;28;68985;-35
2022/02/13 06:00:47;;;;;;;;;;;;;;;32.46;54.02;100566.91;5079209;28;65999;-37
2022/02/13 06:03:17;;;;;;;;;;;;;;;32.25;53.05;100553.91;5056049;28;69254;-39
2022/02/13 06:05:48;;;;;;;;;;;;;;;31.98;54.00;100554.41;5081319;28;66231;-35
2022/02/13 06:08:18;;;;;;;;;;;;;;;31.86;53.40;100553.53;5079341;28;70243;-36
2022/02/13 06:10:49;;;;;;;;;;;;;;;31.78;52.16;100551.16;5077245;28;66685;-35
2022/02/13 06:13:19;;;;;;;;;;;;;;;31.64;51.17;100544.31;5076947;28;69622;-37
2022/02/13 06:15:51;;;;;;;;;;;;;;;31.52;50.85;100536.97;5078157;28;66904;-38
2022/02/13 06:18:21;;;;;;;;;;;;;;;31.44;50.20;100540.03;5052830;28;69518;-34
2022/02/13 06:20:52;;;;;;;;;;;;;;;31.25;50.76;100535.69;5068929;28;65378;-35
2022/02/13 06:23:22;;;;;;;;;;;;;;;31.23;50.32;100537.81;5069416;28;70115;-35
2022/02/13 06:25:54;;;;;;;;;;;;;;;31.22;49.88;100530.75;5071498;28;67884;-35
2022/02/13 06:28:24;;;;;;;;;;;;;;;31.21;48.84;100526.38;5071168;27;69308;-35
2022/02/13 06:30:56;;;;;;;;;;;;;;;31.17;47.60;100529.56;5073587;28;65084;-34
2022/02/13 06:33:25;;;;;;;;;;;;;;;31.15;47.55;100518.13;5072903;28;69824;-35
2022/02/13 06:35:57;;;;;;;;;;;;;;;31.11;46.13;100514.22;5062735;28;65337;-34
2022/02/13 06:38:27;;;;;;;;;;;;;;;31.10;46.21;100509.84;5066787;27;71417;-34
2022/02/13 06:40:58;;;;;;;;;;;;;;;31.09;45.59;100499.25;5063921;28;66342;-35
2022/02/13 06:43:28;;;;;;;;;;;;;;;31.07;45.51;100499.47;5065523;28;69069;-35
2022/02/13 06:45:59;;;;;;;;;;;;;;;31.05;45.28;100488.03;5070905;28;65847;-34
2022/02/13 06:48:31;;;;;;;;;;;;;;;31.03;44.14;100478.50;5061300;28;70209;-36
2022/02/13 06:51:01;;;;;;;;;;;;;;;31.01;44.09;100480.59;5067751;27;65040;-34
2022/02/13 06:53:31;;;;;;;;;;;;;;;30.96;43.78;100473.19;5074057;28;70128;-34
2022/02/13 06:56:03;;;;;;;;;;;;;;;30.92;43.53;100477.41;5071227;28;66158;-35
2022/02/13 06:58:33;;;;;;;;;;;;;;;30.90;43.57;100469.53;5079139;28;69769;-34
2022/02/13 07:01:04;;;;;;;;;;;;;;;30.87;42.24;100471.84;5074255;27;66287;-34
2022/02/13 07:03:34;;;;;;;;;;;;;;;30.85;43.18;100476.69;5094059;27;69726;-34
2022/02/13 07:06:04;;;;;;;;;;;;;;;30.82;42.39;100471.72;5077347;28;66393;-34
2022/02/13 07:08:34;;;;;;;;;;;;;;;30.79;42.14;100466.75;5074719;27;70254;-35
2022/02/13 07:11:07;;;;;;;;;;;;;;;30.77;42.18;100468.84;5079472;28;66504;-35
2022/02/13 07:13:38;;;;;;;;;;;;;;;30.72;41.61;100456.00;5079620;28;70341;-36
2022/02/13 07:16:08;;;;;;;;;;;;;;;30.71;41.51;100462.47;5079328;28;66883;-34
2022/02/13 07:18:37;;;;;;;;;;;;;;;30.66;41.12;100454.19;5075909;28;70247;-35
2022/02/13 07:21:08;;;;;;;;;;;;;;;30.64;42.03;100454.41;5073696;28;66125;-35
2022/02/13 07:23:38;;;;;;;;;;;;;;;30.60;40.92;100457.81;5061489;28;70400;-34
2022/02/13 07:26:10;;;;;;;;;;;;;;;30.44;42.15;100438.44;5061364;28;66595;-34
2022/02/13 07:31:33;;;;;;;;;;;;;;;30.55;40.76;100439.56;5061680;28;65069;-35
2022/02/13 07:34:04;;;;;;;;;;;;;;;30.56;42.27;100433.06;5069399;28;69884;-34
2022/02/13 07:36:35;;;;;;;;;;;;;;;30.53;41.12;100436.25;5079651;27;65670;-34
2022/02/13 07:39:05;;;;;;;;;;;;;;;30.54;41.90;100435.22;5064600;28;70373;-37
2022/02/13 07:41:35;;;;;;;;;;;;;;;30.54;41.45;100432.50;5066111;28;66391;-36
2022/02/13 07:44:05;;;;;;;;;;;;;;;30.49;40.77;100430.47;5074144;28;69760;-36
2022/02/13 07:46:36;;;;;;;;;;;;;;;30.48;40.37;100422.59;5072987;28;65447;-36
2022/02/13 07:49:05;;;;;;;;;;;;;;;30.47;41.21;100420.94;5069620;28;70353;-36
2022/02/13 07:51:36;;;;;;;;;;;;;;;30.46;41.08;100416.56;5082385;27;65350;-36
2022/02/13 07:54:06;;;;;;;;;;;;;;;30.45;41.05;100410.34;5090987;27;70005;-35
2022/02/13 07:56:36;;;;;;;;;;;;;;;30.43;40.58;100406.22;5075042;28;65972;-35
2022/02/13 07:59:06;;;;;;;;;;;;;;;30.42;40.59;100401.84;5071053;28;69948;-36
2022/02/13 08:01:37;;;;;;;;;;;;;;;30.42;40.09;100391.88;5070133;28;66145;-36
2022/02/13 08:04:06;;;;;;;;;;;;;;;30.42;40.14;100382.88;5088439;27;69686;-35
2022/02/13 08:06:37;;;;;;;;;;;;;;;30.44;39.82;100380.78;5058991;28;66623;-36
2022/02/13 08:09:07;;;;;;;;;;;;;;;30.45;41.01;100382.44;5089146;27;69502;-36
2022/02/13 08:11:37;;;;;;;;;;;;;;;30.44;39.64;100376.19;5070638;28;65510;-38
2022/02/13 08:14:07;;;;;;;;;;;;;;;30.44;40.07;100375.38;5069596;28;69170;-36
2022/02/13 08:16:37;;;;;;;;;;;;;;;30.44;40.46;100367.25;5069314;27;65923;-36
2022/02/13 08:19:06;;;;;;;;;;;;;;;30.44;40.89;100369.97;5066773;28;69214;-36
2022/02/13 08:21:37;;;;;;;;;;;;;;;30.44;41.14;100372.66;5071988;28;65639;-40
2022/02/13 08:24:06;;;;;;;;;;;;;;;30.45;40.19;100379.72;5068840;28;70259;-37
2022/02/13 08:26:36;;;;;;;;;;;;;;;30.44;40.83;100375.38;5071008;27;66509;-36
2022/02/13 08:29:06;;;;;;;;;;;;;;;30.44;40.33;100368.06;5068484;28;69102;-36
2022/02/13 08:31:36;;;;;;;;;;;;;;;30.45;40.20;100368.91;5077188;28;66307;-36
2022/02/13 08:34:05;;;;;;;;;;;;;;;30.46;40.26;100375.97;5065837;27;70821;-37
2022/02/13 08:36:37;;;;;;;;;;;;;;;30.48;40.23;100373.88;5076977;28;65333;-37
2022/02/13 08:39:08;;;;;;;;;;;;;;;30.48;39.53;100379.28;5073645;28;70486;-36
2022/02/13 08:41:38;;;;;;;;;;;;;;;30.49;39.86;100376.34;5073703;28;66174;-38
2022/02/13 08:44:08;;;;;;;;;;;;;;;30.50;39.56;100377.16;5075598;28;69743;-37
2022/02/13 08:46:38;;;;;;;;;;;;;;;30.50;39.88;100380.69;5076032;28;66011;-38
2022/02/13 08:49:08;;;;;;;;;;;;;;;30.49;39.48;100378.22;5079141;28;70485;-36
2022/02/13 08:51:37;;;;;;;;;;;;;;;30.50;39.54;100377.16;5077122;28;67009;-38
2022/02/13 08:54:07;;;;;;;;;;;;;;;30.50;39.93;100377.16;5077502;28;70696;-39
2022/02/13 08:56:37;;;;;;;;;;;;;;;30.49;38.94;100380.94;5079232;28;67136;-37
2022/02/13 08:59:07;;;;;;;;;;;;;;;30.48;39.61;100379.28;5077822;28;69854;-37
2022/02/13 09:01:37;;;;;;;;;;;;;;;30.48;38.71;100379.28;5061919;28;66599;-39
2022/02/13 09:04:07;;;;;;;;;;;;;;;30.51;39.41;100378.84;5078628;28;69929;-38
2022/02/13 09:06:37;;;;;;;;;;;;;;;30.53;39.05;100386.69;5094519;27;66730;-38
2022/02/13 09:09:09;;;;;;;;;;;;;;;30.56;39.26;100378.13;5076939;28;69952;-35
2022/02/13 09:11:39;;;;;;;;;;;;;;;30.59;38.61;100380.38;5075046;27;66618;-34
2022/02/13 09:14:10;;;;;;;;;;;;;;;30.60;38.35;100393.69;5073755;28;69917;-34
2022/02/13 09:16:40;;;;;;;;;;;;;;;30.62;38.54;100386.16;5076989;28;66068;-35
2022/02/13 09:19:11;;;;;;;;;;;;;;;30.65;39.18;100385.69;5077406;28;70543;-36
2022/02/13 09:21:41;;;;;;;;;;;;;;;30.69;38.61;100395.00;5078517;28;65393;-36
2022/02/13 09:24:11;;;;;;;;;;;;;;;30.71;38.68;100401.00;5074537;28;69980;-35
2022/02/13 09:26:41;;;;;;;;;;;;;;;30.73;38.58;100401.63;5073527;27;66613;-34
2022/02/13 09:29:11;;;;;;;;;;;;;;;30.84;42.93;100404.59;5077310;28;69899;-35
2022/02/13 09:31:41;;;;;;;;;;;;;;;31.02;44.86;100407.25;5079904;28;66537;-35
2022/02/13 09:34:18;;;;;;;;;;;;;;;31.23;47.98;100410.44;5074678;28;70585;-36
2022/02/13 09:36:48;;;;;;;;;;;;;;;31.42;48.76;100406.59;5079618;28;65935;-36
2022/02/13 09:39:19;;;;;;;;;;;;;;;31.60;50.09;100409.22;5079042;28;69756;-37
2022/02/13 09:41:49;;;;;;;;;;;;;;;31.77;52.98;100408.50;5072865;28;65619;-36
2022/02/13 09:44:20;;;;;;;;;;;;;;;31.95;51.32;100411.06;5065413;27;70952;-35
2022/02/13 09:46:50;;;;;;;;;;;;;;;32.09;51.75;100416.25;5080597;27;65048;-35
2022/02/13 09:49:22;;;;;;;;;;;;;;;32.20;52.29;100412.66;5057221;28;70320;-36
2022/02/13 09:51:52;;;;;;;;;;;;;;;32.29;52.66;100408.53;5075183;28;66993;-35
2022/02/13 09:54:22;;;;;;;;;;;;;;;32.37;52.34;100412.72;5073565;28;69753;-35
2022/02/13 09:57:59;;;;;;;;;;;;;;;32.42;52.92;100416.38;5077487;28;67028;-35
2022/02/13 09:59:55;;;;;;;;;;;;;;;32.49;52.40;100425.22;5074474;28;70375;-35
2022/02/13 10:02:36;;;;;;;;;;;;;;;32.56;52.70;100421.53;5078226;28;66976;-36
2022/02/13 10:05:10;;;;;;;;;;;;;;;32.60;53.51;100417.28;5078992;27;70484;-37
2022/02/13 10:07:42;;;;;;;;;;;;;;;32.64;53.19;100426.59;5065268;28;66813;-36
2022/02/13 10:10:37;;;;;;;;;;;;;;;32.68;53.34;100417.72;5064901;28;70158;-36
2022/02/13 10:13:07;;;;;;;;;;;;;;;32.72;54.11;100426.19;5072698;28;66641;-36
2022/02/13 10:15:37;;;;;;;;;;;;;;;32.75;54.06;100425.69;5065542;28;69807;-37
2022/02/13 10:18:08;;;;;;;;;;;;;;;32.79;53.75;100426.03;5068494;28;66016;-35
2022/02/13 10:20:39;;;;;;;;;;;;;;;32.83;54.08;100432.63;5066299;28;69194;-37
2022/02/13 10:23:15;;;;;;;;;;;;;;;32.84;53.81;100429.66;5062245;28;66702;-37
2022/02/13 10:25:46;;;;;;;;;;;;;;;32.85;53.23;100444.91;5072550;28;70620;-38
2022/02/13 10:28:17;;;;;;;;;;;;;;;32.86;53.94;100449.25;5080749;28;66509;-37
2022/02/13 10:30:49;;;;;;;;;;;;;;;32.89;53.59;100446.06;5078270;28;68742;-37
2022/02/13 10:33:19;;;;;;;;;;;;;;;32.88;54.16;100449.84;5077769;27;65912;-38
2022/02/13 10:36:04;;;;;;;;;;;;;;;32.91;54.24;100451.25;5071561;28;70964;-36
2022/02/13 10:38:43;;;;;;;;;;;;;;;32.92;54.40;100453.72;5068329;28;66219;-36
2022/02/13 10:41:15;;;;;;;;;;;;;;;32.92;54.58;100453.72;5074563;27;70153;-36
2022/02/13 10:43:53;;;;;;;;;;;;;;;32.91;54.89;100457.50;5072197;28;66706;-36
2022/02/13 10:46:24;;;;;;;;;;;;;;;32.93;54.44;100449.94;5071122;28;69774;-36
2022/02/13 10:48:55;;;;;;;;;;;;;;;32.93;55.33;100458.09;5075040;28;66828;-36
2022/02/13 10:51:25;;;;;;;;;;;;;;;32.94;55.16;100462.44;5074193;28;69003;-36
2022/02/13 10:53:56;;;;;;;;;;;;;;;32.95;54.89;100463.28;5074772;28;65730;-36
2022/02/13 10:56:45;;;;;;;;;;;;;;;32.93;54.01;100466.25;5043125;28;70359;-36
2022/02/13 10:59:15;;;;;;;;;;;;;;;32.90;54.63;100468.59;5075971;28;66012;-35
2022/02/13 11:01:47;;;;;;;;;;;;;;;32.89;54.06;100469.69;5076094;28;70534;-36
2022/02/13 11:04:19;;;;;;;;;;;;;;;32.88;54.93;100476.19;5072064;28;65614;-34
2022/02/13 11:06:49;;;;;;;;;;;;;;;32.87;55.63;100478.06;5079156;27;69856;-36
2022/02/13 11:09:26;;;;;;;;;;;;;;;32.87;54.96;100483.50;5072335;28;65227;-35
2022/02/13 11:11:59;;;;;;;;;;;;;;;32.88;54.37;100484.34;5069707;28;70339;-36
2022/02/13 11:14:31;;;;;;;;;;;;;;;32.83;55.05;100482.34;5068583;27;65368;-36
2022/02/13 11:17:04;;;;;;;;;;;;;;;32.82;54.53;100488.88;5093339;27;70278;-36
2022/02/13 11:19:38;;;;;;;;;;;;;;;32.77;54.35;100494.19;5079133;27;66077;-36
2022/02/13 11:22:08;;;;;;;;;;;;;;;32.74;54.43;100502.84;5077767;27;71059;-35
2022/02/13 11:24:47;;;;;;;;;;;;;;;32.70;54.92;100504.38;5077803;28;65330;-35
2022/02/13 11:27:21;;;;;;;;;;;;;;;32.70;55.34;100507.09;5079630;28;69489;-37
2022/02/13 11:29:55;;;;;;;;;;;;;;;32.70;55.03;100515.22;5073718;28;65417;-36
2022/02/13 11:32:33;;;;;;;;;;;;;;;32.69;54.86;100514.41;5095602;27;69676;-35
2022/02/13 11:35:05;;;;;;;;;;;;;;;32.70;55.84;100520.66;5077146;28;66502;-35
2022/02/13 11:37:45;;;;;;;;;;;;;;;32.71;55.04;100519.63;5076992;28;71027;-36
2022/02/13 11:40:33;;;;;;;;;;;;;;;32.70;54.58;100515.22;5075659;28;65818;-35
2022/02/13 11:43:10;;;;;;;;;;;;;;;32.67;54.58;100527.41;5078075;28;70061;-36
2022/02/13 11:45:43;;;;;;;;;;;;;;;32.68;55.89;100528.22;5070693;28;65138;-38
2022/02/13 11:48:49;;;;;;;;;;;;;;;32.68;56.45;100533.66;5076849;28;70798;-38
2022/02/13 11:51:39;;;;;;;;;;;;;;;32.71;55.41;100533.19;5023005;28;64997;-38
2022/02/13 11:54:08;;;;;;;;;;;;;;;32.79;55.26;100538.25;5069523;28;70047;-37
2022/02/13 11:56:38;;;;;;;;;;;;;;;32.85;55.24;100539.16;5075945;28;66587;-39
2022/02/13 11:59:09;;;;;;;;;;;;;;;32.89;54.72;100535.72;5075743;28;70129;-39
2022/02/13 12:01:40;;;;;;;;;;;;;;;32.92;54.96;100540.66;5073742;27;66516;-38
2022/02/13 12:04:11;;;;;;;;;;;;;;;32.96;54.89;100534.72;5086028;27;70399;-39
2022/02/13 12:06:50;;;;;;;;;;;;;;;32.98;54.50;100552.44;5069266;27;66600;-39
2022/02/13 12:09:24;;;;;;;;;;;;;;;33.01;54.05;100543.00;5072093;28;69662;-40
2022/02/13 12:11:56;;;;;;;;;;;;;;;33.00;54.04;100544.09;5066762;28;65834;-38
2022/02/13 12:14:25;;;;;;;;;;;;;;;33.01;53.88;100540.31;5073507;28;69864;-37
2022/02/13 12:16:57;;;;;;;;;;;;;;;32.87;53.99;100526.16;5069885;28;66218;-39
2022/02/13 12:19:27;;;;;;;;;;;;;;;33.01;54.08;100554.69;5072786;28;68959;-38
2022/02/13 12:22:16;;;;;;;;;;;;;;;33.01;53.89;100553.88;5068728;28;67411;-37
2022/02/13 12:24:46;;;;;;;;;;;;;;;33.01;53.87;100559.31;5072935;28;70496;-39
2022/02/13 12:27:16;;;;;;;;;;;;;;;33.01;53.62;100562.03;5069256;28;66070;-38
2022/02/13 12:29:56;;;;;;;;;;;;;;;32.99;53.53;100562.25;5066663;27;70089;-40
2022/02/13 12:32:28;;;;;;;;;;;;;;;33.00;53.54;100568.53;5072520;27;64362;-39
2022/02/13 12:34:59;;;;;;;;;;;;;;;32.98;53.40;100576.91;5070164;27;69718;-39
2022/02/13 12:37:45;;;;;;;;;;;;;;;32.98;53.59;100581.50;5070206;28;66352;-38
2022/02/13 12:40:16;;;;;;;;;;;;;;;32.97;53.50;100582.59;5067527;28;69944;-39
2022/02/13 12:42:52;;;;;;;;;;;;;;;32.96;53.37;100583.63;5072171;28;65880;-39
2022/02/13 12:45:29;;;;;;;;;;;;;;;32.94;53.30;100587.44;5072273;28;70296;-38
2022/02/13 12:48:00;;;;;;;;;;;;;;;32.94;53.28;100594.75;5072773;27;66055;-40
2022/02/13 12:50:31;;;;;;;;;;;;;;;32.93;53.32;100602.09;5072835;28;69312;-39
2022/02/13 12:53:06;;;;;;;;;;;;;;;32.91;53.32;100600.69;5075349;28;66839;-37
2022/02/13 12:55:36;;;;;;;;;;;;;;;32.90;53.54;100610.72;5069362;28;69349;-39
2022/02/13 12:58:06;;;;;;;;;;;;;;;32.90;53.42;100613.44;5073537;28;66585;-39
2022/02/13 13:00:49;;;;;;;;;;;;;;;32.89;53.27;100617.22;5069199;28;70112;-38